Nearby METAR Reports

 

EGTE - Exeter Airport, United Kingdom
Distance from station: S 19km
Updated: 06/04/2020 12:20
Few Clouds
Few Clouds
 Wind from W
Wind: W 22 km/h
Clouds: Few Clouds
Visibility: 10 km
Cloud details: Few Clouds 914 m
2020/04/06 11:20 EGTE 061120Z 27012KT 240V300 9999 FEW030 13/0
EGDY - Yeovilton (navy), United Kingdom
Distance from station: ENE 55km
Updated: 06/04/2020 11:50
Few Clouds
Few Clouds
 Wind from WSW
Wind: WSW 15 km/h
Temperature: 14°C
Dew Point: 6°C
Humidity: 59%
Barometer: 1017 hPa
Clouds: Few Clouds
Visibility: 10 km
Cloud details: Few Clouds 914 m
2020/04/06 10:50 EGDY 061050Z 25008KT 9999 FEW030 14/06 Q1017 NOSIG RMK BLU BLU
 
EGFF - Cardiff-Wales Ar, United Kingdom
Distance from station: N 56km
Updated: 06/04/2020 12:20
Few Clouds
Few Clouds
 Wind from W
Wind: W 26 km/h
Temperature: 12°C
Dew Point: 9°C
Humidity: 82%
Barometer: 1018 hPa
Clouds: Few Clouds
Visibility: 10 km
Cloud details: Few Clouds 1158 m
2020/04/06 11:20 EGFF 061120Z AUTO 27014KT 9999 FEW038 12/09 Q1018
EGDX - St Athan Raf, United Kingdom
Distance from station: N 58km
Updated: 01/04/2019 13:50
NOT Current
Clear
Clear
 Wind from E
Wind: E 15 km/h
Temperature: 11°C
Dew Point: 5°C
Humidity: 67%
Barometer: 1019 hPa
Clouds: Clear
Visibility: 10 km
2019/04/01 12:50 EGDX 011250Z AUTO 10008KT 9999 NCD 11/05 Q1019
 
EGGD - Bristol/Lulsgate, United Kingdom
Distance from station: NE 71km
Updated: 06/04/2020 12:20
Mostly cloudy
Mostly cloudy
 Wind from W
Wind: W 19 km/h
Temperature: 11°C
Dew Point: 8°C
Humidity: 82%
Clouds: Mostly cloudy
Visibility: 10 km
Cloud details: Few Clouds 732 m
Partly cloudy 1128 m
Mostly cloudy 1433 m
2020/04/06 11:20 EGGD 061120Z AUTO 26010KT 9999 FEW024 SCT037 BKN047 11/08